Time;durP1;ratioP1;P1;durP2;ratioP2;P2;SDS_P1;SDS_P2;PMS_P1;PMS_P2;Temp;Humidity;BMP_temperature;BMP_pressure;BME280_temperature;BME280_humidity;BME280_pressure;Samples;Min_cycle;Max_cycle;Signal;HPM_P1;HPM_P2
2023/07/10 00:00:29;;;;;;;9.63;5.00;;;20.20;91.90;;;;;;4878973;28;93428;-74
2023/07/10 00:02:54;;;;;;;11.05;4.90;;;20.20;92.00;;;;;;4879304;28;93207;-74
2023/07/10 00:05:21;;;;;;;10.88;5.25;;;20.20;91.90;;;;;;4879427;28;93158;-75
2023/07/10 00:07:47;;;;;;;10.60;5.97;;;20.20;91.90;;;;;;4877101;28;93455;-75
2023/07/10 00:10:15;;;;;;;8.95;5.15;;;20.20;91.80;;;;;;4878544;28;92733;-74
2023/07/10 00:12:45;;;;;;;12.52;5.65;;;20.20;91.80;;;;;;4879083;28;92699;-74
2023/07/10 00:15:18;;;;;;;11.50;5.18;;;20.10;91.80;;;;;;4878466;28;92801;-74
2023/07/10 00:17:45;;;;;;;8.63;4.88;;;20.00;91.90;;;;;;4878131;28;93246;-75
2023/07/10 00:20:23;;;;;;;13.55;5.72;;;20.10;92.10;;;;;;4878478;28;92842;-74
2023/07/10 00:22:49;;;;;;;13.15;5.63;;;20.00;92.10;;;;;;4860905;28;99819;-75
2023/07/10 00:25:15;;;;;;;10.85;5.57;;;20.00;92.10;;;;;;4878052;28;93762;-75
2023/07/10 00:27:43;;;;;;;10.85;4.70;;;20.00;92.10;;;;;;4875972;28;94995;-75
2023/07/10 00:30:21;;;;;;;17.73;6.32;;;20.00;92.20;;;;;;4876684;28;92950;-74
2023/07/10 00:32:52;;;;;;;12.32;5.80;;;19.90;92.30;;;;;;4876282;28;92472;-75
2023/07/10 00:35:23;;;;;;;13.32;5.38;;;19.90;92.20;;;;;;4877458;28;94976;-75
2023/07/10 00:38:01;;;;;;;11.80;5.10;;;19.90;92.20;;;;;;4875802;28;93016;-74
2023/07/10 00:40:32;;;;;;;9.55;4.60;;;19.90;92.10;;;;;;4878397;28;92181;-75
2023/07/10 00:43:06;;;;;;;11.27;5.43;;;19.90;92.20;;;;;;4878006;28;92151;-75
2023/07/10 00:45:32;;;;;;;13.93;5.60;;;19.90;92.30;;;;;;4876430;28;93822;-74
2023/07/10 00:48:02;;;;;;;10.85;4.88;;;19.90;92.30;;;;;;4876427;28;93987;-75
2023/07/10 00:50:34;;;;;;;10.32;5.13;;;19.80;92.30;;;;;;4875930;28;94095;-75
2023/07/10 00:53:04;;;;;;;9.18;4.35;;;19.80;92.10;;;;;;4875461;28;92643;-75
2023/07/10 00:55:33;;;;;;;10.23;4.80;;;19.80;92.20;;;;;;4877429;28;93231;-74
2023/07/10 00:58:22;;;;;;;10.70;5.10;;;19.90;92.10;;;;;;4875072;28;100571;-75
2023/07/10 01:01:09;;;;;;;13.15;5.00;;;19.90;92.00;;;;;;4875703;28;93092;-75
2023/07/10 01:03:37;;;;;;;11.57;4.80;;;19.90;91.90;;;;;;4877843;28;92784;-75
2023/07/10 01:06:34;;;;;;;10.73;4.70;;;19.90;91.90;;;;;;4875441;28;93733;-75
2023/07/10 01:09:07;;;;;;;10.30;4.22;;;19.90;91.90;;;;;;4871155;28;94153;-75
2023/07/10 01:11:35;;;;;;;11.70;4.90;;;19.90;92.00;;;;;;4876582;28;92783;-75
2023/07/10 01:14:04;;;;;;;11.50;4.78;;;19.80;92.30;;;;;;4876190;28;92663;-75
2023/07/10 01:16:30;;;;;;;8.23;4.32;;;19.70;92.40;;;;;;4876606;28;94756;-75
2023/07/10 01:18:56;;;;;;;9.80;4.78;;;19.70;92.40;;;;;;4874600;28;94970;-75
2023/07/10 01:21:31;;;;;;;8.02;3.92;;;19.70;92.50;;;;;;4876008;28;92864;-74
2023/07/10 01:24:01;;;;;;;8.55;3.47;;;19.60;92.30;;;;;;4876025;28;92283;-74
2023/07/10 01:26:28;;;;;;;6.82;3.20;;;19.60;92.30;;;;;;4875999;28;94812;-74
2023/07/10 01:28:55;;;;;;;11.07;3.60;;;19.60;92.20;;;;;;4875278;28;93167;-75
2023/07/10 01:31:22;;;;;;;10.45;3.40;;;19.60;92.00;;;;;;4874199;28;93093;-74
2023/07/10 01:34:00;;;;;;;7.40;3.25;;;19.60;91.90;;;;;;4875924;28;92188;-75
2023/07/10 01:36:31;;;;;;;9.48;3.08;;;19.60;91.90;;;;;;4875704;28;93639;-75
2023/07/10 01:39:17;;;;;;;8.40;3.28;;;19.50;91.90;;;;;;4875898;28;92758;-75
2023/07/10 01:41:44;;;;;;;7.82;3.20;;;19.50;92.10;;;;;;4866683;28;94016;-75
2023/07/10 01:44:29;;;;;;;6.50;3.30;;;19.50;92.00;;;;;;4874585;28;92773;-75
2023/07/10 01:46:57;;;;;;;6.68;3.33;;;19.50;91.90;;;;;;4875673;28;93402;-75
2023/07/10 01:49:49;;;;;;;5.88;3.22;;;19.50;91.90;;;;;;4876485;28;93912;-75
2023/07/10 01:52:16;;;;;;;10.68;3.22;;;19.50;91.90;;;;;;4875654;28;93481;-75
2023/07/10 01:54:43;;;;;;;9.60;3.03;;;19.40;91.90;;;;;;4876125;28;92452;-74
2023/07/10 01:57:11;;;;;;;5.00;2.67;;;19.40;91.80;;;;;;4875763;28;93219;-75
2023/07/10 01:59:36;;;;;;;6.10;2.75;;;19.40;91.80;;;;;;4876341;28;94146;-75
2023/07/10 02:02:03;;;;;;;5.78;3.17;;;19.30;91.50;;;;;;4876419;28;92581;-75
2023/07/10 02:04:28;;;;;;;6.47;2.40;;;19.30;91.50;;;;;;4875471;28;93018;-75
2023/07/10 02:06:54;;;;;;;10.60;3.40;;;19.30;91.50;;;;;;4875199;28;95251;-75
2023/07/10 02:09:24;;;;;;;4.38;2.42;;;19.30;91.30;;;;;;4875645;28;94309;-75
2023/07/10 02:11:51;;;;;;;5.40;2.25;;;19.30;91.30;;;;;;4875972;28;92353;-75
2023/07/10 02:14:17;;;;;;;4.03;1.80;;;19.20;91.20;;;;;;4873997;28;92333;-75
2023/07/10 02:16:43;;;;;;;8.02;2.38;;;19.20;91.00;;;;;;4873240;28;93938;-75
2023/07/10 02:19:08;;;;;;;5.70;2.33;;;19.20;91.00;;;;;;4875369;28;93585;-75
2023/07/10 02:21:34;;;;;;;7.15;2.25;;;19.20;90.90;;;;;;4874543;28;93936;-74
2023/07/10 02:24:00;;;;;;;6.95;2.20;;;19.20;91.20;;;;;;4875533;28;91927;-75
2023/07/10 02:26:28;;;;;;;4.75;2.70;;;19.20;91.20;;;;;;4873610;28;93867;-74
2023/07/10 02:28:54;;;;;;;5.80;2.33;;;19.20;91.20;;;;;;4873864;28;93242;-75
2023/07/10 02:31:20;;;;;;;4.35;2.28;;;19.20;91.10;;;;;;4875111;28;93621;-74
2023/07/10 02:33:46;;;;;;;6.97;2.90;;;19.20;91.30;;;;;;4873921;28;92615;-74
2023/07/10 02:36:12;;;;;;;6.03;2.75;;;19.20;91.50;;;;;;4874285;28;93293;-74
2023/07/10 02:38:37;;;;;;;8.00;3.13;;;19.10;91.60;;;;;;4873228;28;93346;-74
2023/07/10 02:41:03;;;;;;;5.95;2.88;;;19.10;91.70;;;;;;4873395;28;93007;-74
2023/07/10 02:43:29;;;;;;;7.13;3.45;;;19.10;91.90;;;;;;4874628;28;92927;-75
2023/07/10 02:45:54;;;;;;;8.20;2.72;;;19.10;92.00;;;;;;4873012;28;100548;-75
2023/07/10 02:48:20;;;;;;;7.00;3.35;;;19.10;91.90;;;;;;4873954;28;93866;-75
2023/07/10 02:50:45;;;;;;;9.07;2.95;;;19.10;92.00;;;;;;4873861;28;92791;-75
2023/07/10 02:53:11;;;;;;;5.68;2.80;;;19.10;92.00;;;;;;4873969;28;92898;-75
2023/07/10 02:55:38;;;;;;;6.55;2.67;;;19.00;92.00;;;;;;4873922;28;95173;-75
2023/07/10 02:58:05;;;;;;;9.90;3.47;;;19.00;92.00;;;;;;4874369;28;93943;-74
2023/07/10 03:00:30;;;;;;;11.40;4.65;;;19.00;92.50;;;;;;4875287;28;92767;-74
2023/07/10 03:02:56;;;;;;;11.30;4.32;;;18.90;92.50;;;;;;4875054;28;92874;-75
2023/07/10 03:05:23;;;;;;;9.60;3.70;;;18.90;92.90;;;;;;4874609;28;93414;-75
2023/07/10 03:07:49;;;;;;;7.25;4.32;;;18.90;92.80;;;;;;4874101;28;92889;-75
2023/07/10 03:10:16;;;;;;;11.38;4.75;;;18.90;92.80;;;;;;4875491;28;92913;-75
2023/07/10 03:12:41;;;;;;;10.23;4.10;;;18.90;92.90;;;;;;4874921;28;91762;-75
2023/07/10 03:15:07;;;;;;;8.52;4.28;;;18.80;92.90;;;;;;4873430;28;93639;-75
2023/07/10 03:17:33;;;;;;;8.93;4.30;;;18.80;92.90;;;;;;4873427;28;95043;-75
2023/07/10 03:19:59;;;;;;;9.52;4.13;;;18.80;92.80;;;;;;4874815;28;93575;-75
2023/07/10 03:22:24;;;;;;;9.60;3.70;;;18.80;92.80;;;;;;4876115;28;92856;-74
2023/07/10 03:24:54;;;;;;;6.97;3.70;;;18.80;93.00;;;;;;4857105;28;96778;-75
2023/07/10 03:27:20;;;;;;;6.40;3.80;;;18.80;92.70;;;;;;4872831;28;93743;-74
2023/07/10 03:29:46;;;;;;;11.73;4.32;;;18.80;92.90;;;;;;4874189;28;92758;-75
2023/07/10 03:32:12;;;;;;;9.70;3.72;;;18.80;92.80;;;;;;4874379;28;92843;-75
2023/07/10 03:34:37;;;;;;;8.65;4.50;;;18.70;92.60;;;;;;4873726;28;94242;-74
2023/07/10 03:37:03;;;;;;;7.85;3.95;;;18.80;92.80;;;;;;4874922;28;94021;-75
2023/07/10 03:39:29;;;;;;;10.60;3.58;;;18.70;92.70;;;;;;4873680;28;92572;-75
2023/07/10 03:41:55;;;;;;;8.48;4.20;;;18.70;92.80;;;;;;4874047;28;93198;-74
2023/07/10 03:44:20;;;;;;;10.82;3.58;;;18.70;92.60;;;;;;4873115;28;94822;-74
2023/07/10 03:46:46;;;;;;;9.27;3.83;;;18.70;92.50;;;;;;4874939;28;93664;-75
2023/07/10 03:49:12;;;;;;;13.68;4.30;;;18.70;92.60;;;;;;4874891;28;93241;-75
2023/07/10 03:51:38;;;;;;;8.57;3.40;;;18.70;92.50;;;;;;4873528;28;92871;-75
2023/07/10 03:54:05;;;;;;;8.68;3.53;;;18.70;92.50;;;;;;4872994;28;93139;-75
2023/07/10 03:56:30;;;;;;;6.22;3.42;;;18.60;92.30;;;;;;4855939;28;96112;-74
2023/07/10 03:58:56;;;;;;;7.65;3.22;;;18.60;92.30;;;;;;4874917;28;92866;-75
2023/07/10 04:01:22;;;;;;;9.82;3.53;;;18.60;92.20;;;;;;4874408;28;91963;-76
2023/07/10 04:03:47;;;;;;;8.77;3.63;;;18.60;92.20;;;;;;4873853;28;96566;-75
2023/07/10 04:06:15;;;;;;;10.70;3.60;;;18.60;92.30;;;;;;4876919;28;92930;-75
2023/07/10 04:08:42;;;;;;;7.90;3.65;;;18.60;92.30;;;;;;4876399;28;93720;-75
2023/07/10 04:11:21;;;;;;;10.75;3.65;;;18.60;92.20;;;;;;4876098;28;92971;-75
2023/07/10 04:13:50;;;;;;;7.15;3.05;;;18.50;92.40;;;;;;4859135;28;96563;-74
2023/07/10 04:16:25;;;;;;;5.95;2.95;;;18.60;92.30;;;;;;4877259;28;93246;-75
2023/07/10 04:18:52;;;;;;;10.05;3.63;;;18.50;92.30;;;;;;4876653;28;93388;-74
2023/07/10 04:21:20;;;;;;;6.30;3.50;;;18.50;92.40;;;;;;4876761;28;92814;-75
2023/07/10 04:23:46;;;;;;;6.80;3.40;;;18.40;92.20;;;;;;4876759;28;93938;-74
2023/07/10 04:26:30;;;;;;;9.30;3.55;;;18.40;92.50;;;;;;4876927;28;93147;-75
2023/07/10 04:28:59;;;;;;;10.50;4.00;;;18.40;92.50;;;;;;4876057;28;93041;-75
2023/07/10 04:31:25;;;;;;;8.50;3.65;;;18.40;92.70;;;;;;4878000;28;92651;-75
2023/07/10 04:33:52;;;;;;;9.10;3.70;;;18.40;92.70;;;;;;4876143;28;94675;-75
2023/07/10 04:36:18;;;;;;;15.45;4.32;;;18.40;92.70;;;;;;4877149;28;94507;-75
2023/07/10 04:38:44;;;;;;;17.65;3.72;;;18.30;92.80;;;;;;4876378;28;92551;-75
2023/07/10 04:41:12;;;;;;;13.10;3.50;;;18.30;92.80;;;;;;4876103;28;92586;-74
2023/07/10 04:43:38;;;;;;;9.80;3.90;;;18.20;92.90;;;;;;4878384;28;93397;-74
2023/07/10 04:46:07;;;;;;;9.13;3.88;;;18.20;93.00;;;;;;4877027;28;93253;-75
2023/07/10 04:48:32;;;;;;;7.35;2.92;;;18.20;93.00;;;;;;4877040;28;93549;-75
2023/07/10 04:51:03;;;;;;;11.98;3.25;;;18.20;93.10;;;;;;4876866;28;92350;-75
2023/07/10 04:53:30;;;;;;;8.32;3.28;;;18.10;93.10;;;;;;4859260;28;97850;-75
2023/07/10 04:55:55;;;;;;;9.82;2.97;;;18.10;93.10;;;;;;4876776;28;93018;-75
2023/07/10 04:58:23;;;;;;;8.15;3.30;;;18.10;93.20;;;;;;4877556;28;93920;-74
2023/07/10 05:00:57;;;;;;;7.32;2.88;;;18.20;93.10;;;;;;4875882;28;92792;-75
2023/07/10 05:03:24;;;;;;;8.52;2.83;;;18.20;93.10;;;;;;4876683;28;93718;-75
2023/07/10 05:05:56;;;;;;;9.07;2.60;;;18.30;93.00;;;;;;4876315;28;94239;-74
2023/07/10 05:08:22;;;;;;;7.22;3.03;;;18.30;93.00;;;;;;4876416;28;92519;-74
2023/07/10 05:10:54;;;;;;;8.20;3.17;;;18.40;93.00;;;;;;4876326;28;92481;-75
2023/07/10 05:13:21;;;;;;;7.78;3.17;;;18.40;92.80;;;;;;4876745;28;93177;-77
2023/07/10 05:15:47;;;;;;;7.57;3.25;;;18.40;92.60;;;;;;4876502;28;92695;-79
2023/07/10 05:18:14;;;;;;;11.02;3.70;;;18.40;92.80;;;;;;4878099;28;92846;-79
2023/07/10 05:20:43;;;;;;;6.35;3.28;;;18.40;92.90;;;;;;4859327;28;92666;-78
2023/07/10 05:23:09;;;;;;;8.60;3.30;;;18.50;92.70;;;;;;4874913;28;94144;-79
2023/07/10 05:25:34;;;;;;;6.65;3.13;;;18.50;92.50;;;;;;4878137;28;94676;-78
2023/07/10 05:28:01;;;;;;;8.93;3.17;;;18.60;92.40;;;;;;4877909;28;93055;-78
2023/07/10 05:30:27;;;;;;;11.07;3.28;;;18.60;92.20;;;;;;4874996;28;93451;-77
2023/07/10 05:32:53;;;;;;;6.30;3.05;;;18.60;92.20;;;;;;4877521;28;93389;-86
2023/07/10 05:35:18;;;;;;;10.40;3.05;;;18.70;92.10;;;;;;4875896;28;93964;-78
2023/07/10 05:37:44;;;;;;;9.77;3.00;;;18.70;92.10;;;;;;4877514;28;92622;-78
2023/07/10 05:40:10;;;;;;;5.70;2.78;;;18.70;92.00;;;;;;4877850;28;92031;-78
2023/07/10 05:42:35;;;;;;;8.27;3.28;;;18.70;91.80;;;;;;4877199;28;93255;-78
2023/07/10 05:45:01;;;;;;;8.68;2.95;;;18.80;91.80;;;;;;4872473;28;93191;-77
2023/07/10 05:47:26;;;;;;;8.25;3.08;;;18.80;91.60;;;;;;4871227;28;93705;-77
2023/07/10 05:49:52;;;;;;;9.70;3.08;;;18.90;91.00;;;;;;4874720;28;92451;-78
2023/07/10 05:52:18;;;;;;;31.52;5.10;;;18.90;90.90;;;;;;4871988;28;93721;-78
2023/07/10 05:54:43;;;;;;;5.82;2.13;;;19.00;91.10;;;;;;4870125;28;92716;-79
2023/07/10 05:57:09;;;;;;;20.33;3.13;;;19.00;91.00;;;;;;4870705;28;93155;-76
2023/07/10 05:59:35;;;;;;;6.80;2.47;;;19.10;90.90;;;;;;4870428;28;92416;-76
2023/07/10 06:02:00;;;;;;;10.20;3.42;;;19.20;90.30;;;;;;4875585;28;93726;-76
2023/07/10 06:04:26;;;;;;;7.25;2.30;;;19.20;90.30;;;;;;4875388;28;93198;-76
2023/07/10 06:06:51;;;;;;;6.53;2.58;;;19.30;90.00;;;;;;4876067;28;92842;-76
2023/07/10 06:09:17;;;;;;;6.40;1.90;;;19.40;89.00;;;;;;4875980;28;92919;-79
2023/07/10 06:11:43;;;;;;;6.78;1.88;;;19.40;88.30;;;;;;4873804;28;98261;-80
2023/07/10 06:14:08;;;;;;;7.72;2.47;;;19.60;87.10;;;;;;4857609;28;96969;-79
2023/07/10 06:16:34;;;;;;;5.40;2.35;;;19.60;86.60;;;;;;4877403;28;93393;-80
2023/07/10 06:18:59;;;;;;;6.30;2.78;;;19.70;86.20;;;;;;4860031;28;100945;-79
2023/07/10 06:21:25;;;;;;;6.53;2.20;;;19.80;84.80;;;;;;4857328;28;94085;-78
2023/07/10 06:23:50;;;;;;;4.97;2.30;;;19.80;84.40;;;;;;4857776;28;94627;-79
2023/07/10 06:26:16;;;;;;;5.50;1.80;;;19.90;85.10;;;;;;4856114;28;93138;-78
2023/07/10 06:28:42;;;;;;;6.07;2.35;;;20.00;84.70;;;;;;4858133;28;91781;-79
2023/07/10 06:31:10;;;;;;;9.85;2.90;;;20.10;85.00;;;;;;4858233;28;92859;-79
2023/07/10 06:33:37;;;;;;;6.20;2.17;;;20.20;83.90;;;;;;4857576;28;93189;-79
2023/07/10 06:36:04;;;;;;;9.00;2.50;;;20.30;84.20;;;;;;4856949;28;93569;-78
2023/07/10 06:38:30;;;;;;;5.10;2.30;;;20.40;82.30;;;;;;4841727;28;92675;-78
2023/07/10 06:40:56;;;;;;;5.60;2.22;;;20.50;81.30;;;;;;4858199;28;93317;-79
2023/07/10 06:43:22;;;;;;;5.20;2.15;;;20.60;81.50;;;;;;4840905;28;96668;-78
2023/07/10 06:45:48;;;;;;;9.50;2.75;;;20.70;81.30;;;;;;4856469;28;93006;-78
2023/07/10 06:48:14;;;;;;;6.15;2.35;;;20.80;79.80;;;;;;4839083;29;92559;-78
2023/07/10 06:50:40;;;;;;;6.93;2.15;;;20.90;79.10;;;;;;4856197;28;94116;-78
2023/07/10 06:53:06;;;;;;;5.20;1.95;;;21.00;79.00;;;;;;4857116;28;92995;-78
2023/07/10 06:55:32;;;;;;;5.88;1.88;;;21.10;78.40;;;;;;4857630;28;92503;-78
2023/07/10 06:57:58;;;;;;;5.68;1.63;;;21.10;77.30;;;;;;4855992;29;93051;-78
2023/07/10 07:00:23;;;;;;;7.63;1.98;;;21.20;76.70;;;;;;4855668;29;94643;-78
2023/07/10 07:02:49;;;;;;;4.75;1.50;;;21.30;77.20;;;;;;4856655;28;94327;-78
2023/07/10 07:05:15;;;;;;;7.85;1.58;;;21.40;76.20;;;;;;4857660;28;92460;-78
2023/07/10 07:10:14;;;;;;;4.25;0.95;;;21.50;75.70;;;;;;4857250;29;93986;-78
2023/07/10 07:12:42;;;;;;;5.40;1.17;;;21.60;74.10;;;;;;4857004;28;93733;-78
2023/07/10 07:15:09;;;;;;;5.25;1.30;;;21.70;71.70;;;;;;4857207;28;92411;-77
2023/07/10 07:17:35;;;;;;;6.80;1.25;;;21.80;73.50;;;;;;4848722;29;92306;-78
2023/07/10 07:20:01;;;;;;;5.85;1.23;;;21.90;72.70;;;;;;4856876;28;94168;-78
2023/07/10 07:22:27;;;;;;;5.22;1.15;;;22.10;71.30;;;;;;4839645;29;94515;-78
2023/07/10 07:24:52;;;;;;;3.90;0.90;;;22.20;73.50;;;;;;4856013;28;93893;-79
2023/07/10 07:27:18;;;;;;;4.80;1.38;;;22.30;72.90;;;;;;4856676;28;92855;-79
2023/07/10 07:29:44;;;;;;;3.85;1.10;;;22.50;69.00;;;;;;4856159;29;94218;-78
2023/07/10 07:32:10;;;;;;;4.72;1.30;;;22.50;70.20;;;;;;4840352;28;94725;-78
2023/07/10 07:34:36;;;;;;;3.22;1.15;;;22.60;71.40;;;;;;4856757;28;93197;-78
2023/07/10 07:37:04;;;;;;;5.10;1.38;;;22.60;70.20;;;;;;4858712;28;92884;-78
2023/07/10 07:39:32;;;;;;;5.68;1.23;;;22.70;71.80;;;;;;4860433;28;93250;-79
2023/07/10 07:41:58;;;;;;;4.97;0.90;;;22.90;71.70;;;;;;4860617;28;93358;-78
2023/07/10 07:44:24;;;;;;;3.78;0.98;;;23.00;70.60;;;;;;4842902;28;92842;-78
2023/07/10 07:46:50;;;;;;;10.65;1.40;;;23.20;68.40;;;;;;4859494;28;92815;-78
2023/07/10 07:49:16;;;;;;;4.00;1.25;;;23.20;67.80;;;;;;4860732;28;95446;-78
2023/07/10 07:51:43;;;;;;;5.03;1.20;;;23.30;68.50;;;;;;4859885;28;94061;-78
2023/07/10 07:54:11;;;;;;;4.57;1.00;;;23.40;67.90;;;;;;4860004;28;93157;-78
2023/07/10 07:56:37;;;;;;;2.88;0.90;;;23.40;66.60;;;;;;4859777;28;92767;-77
2023/07/10 07:59:03;;;;;;;4.72;1.00;;;23.50;66.80;;;;;;4859731;28;93594;-78
2023/07/10 08:01:29;;;;;;;4.18;1.05;;;23.50;65.50;;;;;;4860686;29;93390;-78
2023/07/10 08:03:54;;;;;;;4.63;0.73;;;23.70;65.00;;;;;;4860890;28;92504;-78
2023/07/10 08:06:21;;;;;;;4.53;1.05;;;23.80;66.40;;;;;;4861022;28;92241;-78
2023/07/10 08:08:46;;;;;;;5.38;1.08;;;23.90;65.70;;;;;;4859268;28;94151;-77
2023/07/10 08:11:12;;;;;;;2.72;1.00;;;23.90;65.20;;;;;;4859519;28;93358;-78
2023/07/10 08:13:38;;;;;;;4.53;1.27;;;24.00;64.50;;;;;;4849690;29;93624;-78
2023/07/10 08:16:04;;;;;;;5.07;1.30;;;23.90;63.10;;;;;;4860656;28;92325;-78
2023/07/10 08:18:30;;;;;;;2.72;0.95;;;23.90;63.90;;;;;;4859850;29;93741;-78
2023/07/10 08:21:06;;;;;;;3.78;0.88;;;23.90;63.10;;;;;;4859909;28;93992;-78
2023/07/10 08:23:31;;;;;;;3.33;0.90;;;23.90;64.20;;;;;;4859095;28;92965;-77
2023/07/10 08:25:57;;;;;;;3.60;0.90;;;24.00;64.60;;;;;;4859574;28;92634;-78
2023/07/10 08:28:23;;;;;;;5.22;1.17;;;24.10;64.20;;;;;;4858995;28;96805;-78
2023/07/10 08:30:48;;;;;;;5.68;1.10;;;24.20;62.40;;;;;;4857909;28;95525;-78
2023/07/10 08:33:14;;;;;;;1.13;0.60;;;24.40;63.00;;;;;;4846539;29;93619;-78
2023/07/10 08:35:40;;;;;;;2.35;0.90;;;24.50;62.10;;;;;;4860158;28;93282;-79
2023/07/10 08:38:06;;;;;;;5.10;0.98;;;24.60;62.20;;;;;;4842131;29;97327;-79
2023/07/10 08:40:40;;;;;;;3.08;0.95;;;24.70;63.60;;;;;;4860190;28;93467;-78
2023/07/10 08:43:34;;;;;;;3.70;0.70;;;24.80;61.40;;;;;;4859127;28;92062;-78
2023/07/10 08:46:02;;;;;;;2.15;0.70;;;25.00;61.30;;;;;;4856392;28;95980;-78
2023/07/10 08:48:38;;;;;;;6.18;1.05;;;25.00;59.00;;;;;;4841917;29;95809;-78
2023/07/10 08:51:19;;;;;;;3.90;1.13;;;25.00;59.00;;;;;;4858880;28;93914;-78
2023/07/10 08:54:26;;;;;;;4.15;0.95;;;25.00;59.90;;;;;;4857299;29;92708;-78
2023/07/10 08:57:31;;;;;;;2.97;1.00;;;25.10;59.60;;;;;;4784754;29;91958;-78
2023/07/10 09:00:06;;;;;;;3.17;1.02;;;25.30;59.40;;;;;;4800279;29;93722;-79
2023/07/10 09:02:39;;;;;;;3.58;1.23;;;25.40;60.20;;;;;;4846571;29;93743;-79
2023/07/10 09:05:07;;;;;;;4.97;1.07;;;25.60;60.00;;;;;;4858737;28;93701;-80
2023/07/10 09:07:42;;;;;;;4.18;1.25;;;25.80;59.40;;;;;;4859682;28;92576;-78
2023/07/10 09:10:24;;;;;;;4.25;1.42;;;25.90;57.50;;;;;;4857771;28;98216;-78
2023/07/10 09:12:52;;;;;;;3.15;1.15;;;26.00;56.80;;;;;;4859071;28;93252;-77
2023/07/10 09:15:20;;;;;;;3.20;0.70;;;26.10;57.90;;;;;;4859345;28;92910;-78
2023/07/10 09:17:59;;;;;;;5.28;0.90;;;26.30;57.00;;;;;;4858873;28;92895;-77
2023/07/10 09:20:25;;;;;;;2.83;0.90;;;26.30;55.70;;;;;;4859417;29;94050;-79
2023/07/10 09:22:57;;;;;;;5.75;1.10;;;26.20;56.20;;;;;;4860744;28;93721;-78
2023/07/10 09:25:23;;;;;;;3.70;1.05;;;26.20;56.00;;;;;;4851540;28;92744;-78
2023/07/10 09:27:49;;;;;;;3.80;0.70;;;26.20;54.00;;;;;;4842238;28;92337;-77
2023/07/10 09:30:26;;;;;;;5.93;1.00;;;26.20;54.30;;;;;;4858801;28;94169;-77
2023/07/10 09:33:03;;;;;;;2.63;0.80;;;26.20;55.80;;;;;;4858509;28;94219;-77
2023/07/10 09:35:30;;;;;;;4.57;1.00;;;26.40;54.50;;;;;;4858472;28;92949;-77
2023/07/10 09:37:56;;;;;;;2.50;0.82;;;26.40;54.30;;;;;;4859257;28;92621;-77
2023/07/10 09:40:40;;;;;;;5.72;0.77;;;26.40;56.40;;;;;;4859261;28;92853;-77
2023/07/10 09:43:14;;;;;;;2.95;0.80;;;26.40;55.10;;;;;;4849990;28;100278;-77
2023/07/10 09:45:44;;;;;;;1.98;0.70;;;26.50;55.40;;;;;;4858000;28;92913;-77
2023/07/10 09:48:14;;;;;;;2.58;0.80;;;26.60;55.20;;;;;;4858836;28;91837;-77
2023/07/10 09:50:43;;;;;;;4.28;1.05;;;26.70;54.50;;;;;;4857818;28;93703;-77
2023/07/10 09:53:26;;;;;;;4.57;1.10;;;26.70;53.60;;;;;;4857308;28;92916;-78
2023/07/10 09:55:52;;;;;;;3.75;0.93;;;26.70;54.10;;;;;;4858968;28;93810;-77
2023/07/10 09:58:18;;;;;;;3.40;1.00;;;26.70;54.90;;;;;;4859138;28;92796;-78
2023/07/10 10:00:45;;;;;;;3.30;0.93;;;26.70;55.20;;;;;;4856845;28;93545;-77
2023/07/10 10:03:19;;;;;;;3.13;0.95;;;26.90;52.30;;;;;;4856801;29;96193;-77
2023/07/10 10:05:52;;;;;;;4.13;0.90;;;27.00;54.00;;;;;;4859978;28;93005;-78
2023/07/10 10:08:31;;;;;;;5.70;1.30;;;27.10;53.10;;;;;;4840652;28;92918;-77
2023/07/10 10:11:01;;;;;;;1.65;0.70;;;27.20;54.60;;;;;;4856562;28;93812;-77
2023/07/10 10:13:30;;;;;;;2.63;0.77;;;27.30;53.70;;;;;;4859072;28;93280;-78
2023/07/10 10:16:11;;;;;;;3.67;1.00;;;27.50;54.40;;;;;;4858761;28;92779;-77
2023/07/10 10:18:50;;;;;;;3.22;0.77;;;27.70;54.00;;;;;;4859036;28;92284;-77
2023/07/10 10:21:19;;;;;;;4.70;1.10;;;27.80;52.20;;;;;;4839731;29;96688;-78
2023/07/10 10:23:47;;;;;;;2.88;1.10;;;27.90;52.40;;;;;;4857643;29;93878;-77
2023/07/10 10:26:41;;;;;;;4.20;0.80;;;27.90;51.20;;;;;;4857760;28;92841;-77
2023/07/10 10:29:23;;;;;;;6.07;0.80;;;28.00;50.80;;;;;;4857736;28;93108;-77
2023/07/10 10:32:36;;;;;;;6.18;1.02;;;28.20;52.40;;;;;;4858015;28;93217;-77
2023/07/10 10:36:02;;;;;;;2.05;0.85;;;28.40;52.90;;;;;;4800144;28;93873;-77
2023/07/10 10:38:45;;;;;;;6.72;1.30;;;28.50;51.00;;;;;;4817330;29;92617;-77
2023/07/10 10:41:47;;;;;;;2.90;0.88;;;28.50;49.10;;;;;;4813453;29;92069;-77
2023/07/10 10:44:40;;;;;;;5.78;1.00;;;28.40;50.10;;;;;;4839942;29;93946;-78
2023/07/10 10:47:24;;;;;;;4.25;1.00;;;28.50;50.90;;;;;;4858323;28;93353;-78
2023/07/10 10:50:22;;;;;;;4.55;0.95;;;28.60;48.50;;;;;;4864231;28;94318;-78
2023/07/10 10:52:56;;;;;;;6.38;1.13;;;28.30;49.90;;;;;;4861539;28;92703;-78
2023/07/10 10:55:51;;;;;;;5.45;0.88;;;28.30;50.20;;;;;;4863390;28;93599;-77
2023/07/10 10:58:26;;;;;;;3.85;0.95;;;28.30;50.90;;;;;;4857022;29;98329;-78
2023/07/10 11:01:03;;;;;;;1.88;0.85;;;28.30;49.50;;;;;;4858854;28;92934;-77
2023/07/10 11:03:34;;;;;;;5.00;1.27;;;28.40;51.10;;;;;;4858314;28;92781;-77
2023/07/10 11:06:21;;;;;;;3.65;0.98;;;28.40;49.70;;;;;;4858597;28;94227;-77
2023/07/10 11:08:50;;;;;;;4.60;1.13;;;28.20;49.00;;;;;;4860787;28;92126;-77
2023/07/10 11:11:38;;;;;;;3.03;1.17;;;28.20;50.50;;;;;;4858911;29;92913;-77
2023/07/10 11:14:04;;;;;;;2.65;0.80;;;28.10;50.30;;;;;;4870732;28;93267;-76
2023/07/10 11:16:32;;;;;;;3.58;0.90;;;28.00;50.40;;;;;;4870981;28;95047;-77
2023/07/10 11:18:59;;;;;;;4.28;0.70;;;27.90;50.30;;;;;;4862898;28;93314;-77
2023/07/10 11:21:25;;;;;;;4.78;1.25;;;27.80;50.60;;;;;;4862331;28;93325;-77
2023/07/10 11:23:51;;;;;;;5.00;1.02;;;27.90;51.50;;;;;;4844914;28;93138;-77
2023/07/10 11:26:24;;;;;;;1.90;0.80;;;28.10;53.40;;;;;;4873257;28;96982;-77
2023/07/10 11:28:56;;;;;;;1.75;0.70;;;28.20;52.80;;;;;;4860955;28;94428;-77
2023/07/10 11:31:31;;;;;;;3.10;0.90;;;28.40;51.40;;;;;;4841860;29;92657;-77
2023/07/10 11:34:06;;;;;;;2.90;0.60;;;28.70;50.30;;;;;;4864220;28;91845;-77
2023/07/10 11:36:34;;;;;;;3.55;0.90;;;28.90;50.60;;;;;;4862814;28;94614;-77
2023/07/10 11:39:06;;;;;;;4.80;0.85;;;29.00;47.10;;;;;;4845012;28;94438;-77
2023/07/10 11:42:04;;;;;;;3.00;0.93;;;29.20;48.80;;;;;;4841827;29;94634;-77
2023/07/10 11:44:32;;;;;;;4.43;0.90;;;29.40;48.50;;;;;;4842393;28;92917;-77
2023/07/10 11:47:01;;;;;;;3.97;0.90;;;29.50;48.90;;;;;;4861549;28;92819;-76
2023/07/10 11:49:51;;;;;;;4.80;0.75;;;29.70;47.60;;;;;;4844877;28;93856;-77
2023/07/10 11:52:16;;;;;;;3.13;0.77;;;29.70;47.00;;;;;;4862490;28;92503;-76
2023/07/10 11:54:47;;;;;;;4.28;0.75;;;29.90;47.60;;;;;;4861651;29;92771;-77
2023/07/10 11:57:32;;;;;;;4.45;0.73;;;29.90;47.80;;;;;;4859127;28;94377;-77
2023/07/10 12:00:01;;;;;;;5.03;1.00;;;30.10;46.00;;;;;;4860623;29;93307;-76
2023/07/10 12:02:27;;;;;;;3.95;1.40;;;30.30;45.20;;;;;;4860172;28;92890;-77
2023/07/10 12:04:53;;;;;;;3.85;0.82;;;30.50;47.50;;;;;;4860052;29;92820;-77
2023/07/10 12:07:19;;;;;;;4.03;0.80;;;30.50;45.80;;;;;;4859720;28;94505;-77
2023/07/10 12:09:54;;;;;;;3.95;1.00;;;30.70;45.60;;;;;;4860116;28;95099;-77
2023/07/10 12:12:19;;;;;;;3.97;1.13;;;30.70;45.50;;;;;;4860445;29;92408;-77
2023/07/10 12:14:45;;;;;;;6.68;0.88;;;30.60;45.80;;;;;;4860380;28;92809;-77
2023/07/10 12:17:16;;;;;;;4.32;0.80;;;30.60;46.30;;;;;;4860051;28;93317;-77
2023/07/10 12:19:42;;;;;;;2.78;0.70;;;30.70;44.90;;;;;;4859065;28;93307;-77
2023/07/10 12:22:19;;;;;;;5.60;1.08;;;30.80;46.30;;;;;;4861233;28;92674;-77
2023/07/10 12:24:54;;;;;;;4.90;0.90;;;30.80;43.90;;;;;;4859431;29;91954;-77
2023/07/10 12:27:20;;;;;;;4.00;1.05;;;30.80;46.30;;;;;;4841937;29;96721;-77
2023/07/10 12:29:54;;;;;;;3.70;0.90;;;30.80;46.50;;;;;;4860525;28;93226;-77
2023/07/10 12:32:23;;;;;;;2.50;0.75;;;30.80;43.90;;;;;;4861067;29;93536;-77
2023/07/10 12:34:49;;;;;;;2.35;0.80;;;30.50;44.70;;;;;;4860690;28;93044;-76
2023/07/10 12:37:16;;;;;;;3.45;0.93;;;30.50;45.10;;;;;;4860493;28;94226;-77
2023/07/10 12:39:49;;;;;;;5.38;1.10;;;30.50;45.50;;;;;;4859856;28;93246;-77
2023/07/10 12:42:34;;;;;;;3.07;0.90;;;30.70;43.80;;;;;;4860044;29;92934;-76
2023/07/10 12:45:08;;;;;;;4.70;0.70;;;30.70;45.90;;;;;;4859397;29;93815;-77
2023/07/10 12:47:35;;;;;;;4.70;1.27;;;31.00;45.20;;;;;;4860256;28;92886;-77
2023/07/10 12:50:01;;;;;;;4.60;1.08;;;31.40;44.60;;;;;;4859193;29;93918;-78
2023/07/10 12:52:35;;;;;;;7.78;1.40;;;31.50;44.20;;;;;;4860931;28;92560;-78
2023/07/10 12:55:04;;;;;;;3.10;1.23;;;31.60;44.70;;;;;;4860153;28;92518;-77
2023/07/10 12:57:34;;;;;;;3.72;0.88;;;31.80;43.60;;;;;;4858682;29;95430;-77
2023/07/10 13:00:05;;;;;;;4.15;1.13;;;31.70;42.40;;;;;;4859516;29;100732;-77
2023/07/10 13:02:37;;;;;;;2.78;0.98;;;31.70;43.60;;;;;;4861350;28;92834;-77